sensor_id;sensor_type;location;lat;lon;timestamp;pressure;altitude;pressure_sealevel;temperature;humidity
37078;BME280;22989;55.998;37.212;2022-09-03T00:00:59;99425.00;;;4.68;85.34
37078;BME280;22989;55.998;37.212;2022-09-03T00:04:19;99421.56;;;4.66;85.18
37078;BME280;22989;55.998;37.212;2022-09-03T00:06:33;99426.63;;;4.65;85.44
37078;BME280;22989;55.998;37.212;2022-09-03T00:09:09;99430.03;;;4.65;85.54
37078;BME280;22989;55.998;37.212;2022-09-03T00:11:47;99430.84;;;4.64;85.78
37078;BME280;22989;55.998;37.212;2022-09-03T00:14:31;99433.31;;;4.61;85.69
37078;BME280;22989;55.998;37.212;2022-09-03T00:17:04;99436.69;;;4.60;85.98
37078;BME280;22989;55.998;37.212;2022-09-03T00:19:36;99430.66;;;4.57;86.08
37078;BME280;22989;55.998;37.212;2022-09-03T00:22:08;99434.03;;;4.56;86.12
37078;BME280;22989;55.998;37.212;2022-09-03T00:24:38;99430.66;;;4.57;86.28
37078;BME280;22989;55.998;37.212;2022-09-03T00:27:13;99428.03;;;4.55;86.45
37078;BME280;22989;55.998;37.212;2022-09-03T00:29:47;99431.47;;;4.56;86.47
37078;BME280;22989;55.998;37.212;2022-09-03T00:32:18;99434.03;;;4.56;86.30
37078;BME280;22989;55.998;37.212;2022-09-03T00:34:53;99438.31;;;4.57;86.75
37078;BME280;22989;55.998;37.212;2022-09-03T00:37:21;99446.78;;;4.56;86.96
37078;BME280;22989;55.998;37.212;2022-09-03T00:39:47;99451.91;;;4.57;86.88
37078;BME280;22989;55.998;37.212;2022-09-03T00:48:00;99456.97;;;4.56;86.80
37078;BME280;22989;55.998;37.212;2022-09-03T00:51:06;99458.59;;;4.53;86.84
37078;BME280;22989;55.998;37.212;2022-09-03T00:54:08;99464.47;;;4.51;86.87
37078;BME280;22989;55.998;37.212;2022-09-03T00:56:51;99472.88;;;4.48;86.96
37078;BME280;22989;55.998;37.212;2022-09-03T00:59:39;99466.00;;;4.46;87.13
37078;BME280;22989;55.998;37.212;2022-09-03T01:02:49;99475.16;;;4.39;87.12
37078;BME280;22989;55.998;37.212;2022-09-03T01:11:16;99471.50;;;4.29;87.06
37078;BME280;22989;55.998;37.212;2022-09-03T01:24:59;99469.00;;;4.31;87.64
37078;BME280;22989;55.998;37.212;2022-09-03T01:30:27;99470.75;;;4.33;87.75
37078;BME280;22989;55.998;37.212;2022-09-03T01:33:12;99483.47;;;4.32;87.65
37078;BME280;22989;55.998;37.212;2022-09-03T01:35:46;99475.75;;;4.29;87.91
37078;BME280;22989;55.998;37.212;2022-09-03T01:38:50;99484.16;;;4.26;87.95
37078;BME280;22989;55.998;37.212;2022-09-03T01:49:55;99494.09;;;4.18;88.01
37078;BME280;22989;55.998;37.212;2022-09-03T02:00:45;99511.69;;;4.11;88.20
37078;BME280;22989;55.998;37.212;2022-09-03T02:03:14;99515.94;;;4.10;88.05
37078;BME280;22989;55.998;37.212;2022-09-03T02:05:40;99514.19;;;4.09;88.01
37078;BME280;22989;55.998;37.212;2022-09-03T02:08:09;99515.84;;;4.07;88.26
37078;BME280;22989;55.998;37.212;2022-09-03T02:10:51;99524.31;;;4.06;88.19
37078;BME280;22989;55.998;37.212;2022-09-03T02:13:25;99527.75;;;4.08;88.12
37078;BME280;22989;55.998;37.212;2022-09-03T02:15:56;99522.66;;;4.08;88.49
37078;BME280;22989;55.998;37.212;2022-09-03T02:18:24;99531.19;;;4.09;88.44
37078;BME280;22989;55.998;37.212;2022-09-03T02:20:52;99533.72;;;4.09;88.63
37078;BME280;22989;55.998;37.212;2022-09-03T02:23:19;99540.56;;;4.10;88.48
37078;BME280;22989;55.998;37.212;2022-09-03T02:25:50;99540.59;;;4.11;88.55
37078;BME280;22989;55.998;37.212;2022-09-03T02:28:17;99544.03;;;4.13;88.60
37078;BME280;22989;55.998;37.212;2022-09-03T02:30:43;99535.59;;;4.14;88.74
37078;BME280;22989;55.998;37.212;2022-09-03T02:33:09;99544.16;;;4.16;88.79
37078;BME280;22989;55.998;37.212;2022-09-03T02:35:35;99537.31;;;4.15;88.81
37078;BME280;22989;55.998;37.212;2022-09-03T02:38:12;99540.78;;;4.17;88.58
37078;BME280;22989;55.998;37.212;2022-09-03T02:40:38;99549.19;;;4.15;88.85
37078;BME280;22989;55.998;37.212;2022-09-03T02:43:05;99539.88;;;4.15;88.73
37078;BME280;22989;55.998;37.212;2022-09-03T02:45:33;99539.09;;;4.18;88.71
37078;BME280;22989;55.998;37.212;2022-09-03T02:48:01;99544.28;;;4.21;88.70
37078;BME280;22989;55.998;37.212;2022-09-03T02:50:26;99549.47;;;4.24;88.68
37078;BME280;22989;55.998;37.212;2022-09-03T02:52:52;99549.59;;;4.27;88.65
37078;BME280;22989;55.998;37.212;2022-09-03T02:55:19;99552.25;;;4.32;88.85
37078;BME280;22989;55.998;37.212;2022-09-03T02:57:45;99556.66;;;4.37;88.59
37078;BME280;22989;55.998;37.212;2022-09-03T03:00:12;99559.31;;;4.41;88.69
37078;BME280;22989;55.998;37.212;2022-09-03T03:02:38;99551.81;;;4.45;88.71
37078;BME280;22989;55.998;37.212;2022-09-03T03:05:04;99552.00;;;4.51;88.58
37078;BME280;22989;55.998;37.212;2022-09-03T03:07:36;99559.06;;;4.62;88.46
37078;BME280;22989;55.998;37.212;2022-09-03T03:10:02;99560.13;;;4.68;88.57
37078;BME280;22989;55.998;37.212;2022-09-03T03:12:28;99558.91;;;4.86;88.45
37078;BME280;22989;55.998;37.212;2022-09-03T03:14:55;99557.22;;;5.50;88.56
37078;BME280;22989;55.998;37.212;2022-09-03T03:17:21;99557.53;;;6.74;89.06
37078;BME280;22989;55.998;37.212;2022-09-03T03:19:47;99556.16;;;8.42;88.50
37078;BME280;22989;55.998;37.212;2022-09-03T03:22:13;99553.53;;;9.92;85.93
37078;BME280;22989;55.998;37.212;2022-09-03T03:24:39;99548.22;;;11.15;78.69
37078;BME280;22989;55.998;37.212;2022-09-03T03:27:05;99549.09;;;12.38;70.21
37078;BME280;22989;55.998;37.212;2022-09-03T03:29:32;99552.06;;;13.54;63.17
37078;BME280;22989;55.998;37.212;2022-09-03T03:31:58;99547.75;;;14.50;58.76
37078;BME280;22989;55.998;37.212;2022-09-03T03:34:24;99553.69;;;15.31;54.92
37078;BME280;22989;55.998;37.212;2022-09-03T03:36:49;99554.38;;;16.00;51.81
37078;BME280;22989;55.998;37.212;2022-09-03T03:39:15;99548.72;;;16.73;49.80
37078;BME280;22989;55.998;37.212;2022-09-03T03:41:42;99551.63;;;17.41;49.28
37078;BME280;22989;55.998;37.212;2022-09-03T03:44:07;99546.06;;;17.92;46.16
37078;BME280;22989;55.998;37.212;2022-09-03T03:46:36;99554.63;;;18.32;43.67
37078;BME280;22989;55.998;37.212;2022-09-03T03:49:02;99543.00;;;18.75;42.83
37078;BME280;22989;55.998;37.212;2022-09-03T03:51:27;99556.72;;;19.14;41.37
37078;BME280;22989;55.998;37.212;2022-09-03T03:53:55;99559.16;;;19.47;39.73
37078;BME280;22989;55.998;37.212;2022-09-03T03:56:22;99555.13;;;19.93;38.70
37078;BME280;22989;55.998;37.212;2022-09-03T03:58:49;99560.84;;;20.29;37.61
37078;BME280;22989;55.998;37.212;2022-09-03T04:01:26;99558.44;;;20.74;36.16
37078;BME280;22989;55.998;37.212;2022-09-03T04:03:54;99555.91;;;21.18;35.09
37078;BME280;22989;55.998;37.212;2022-09-03T04:06:20;99550.19;;;21.53;34.85
37078;BME280;22989;55.998;37.212;2022-09-03T04:08:47;99557.88;;;22.00;33.81
37078;BME280;22989;55.998;37.212;2022-09-03T04:11:18;99557.19;;;22.38;32.87
37078;BME280;22989;55.998;37.212;2022-09-03T04:13:45;99559.03;;;22.75;31.93
37078;BME280;22989;55.998;37.212;2022-09-03T04:16:18;99570.81;;;23.05;31.15
37078;BME280;22989;55.998;37.212;2022-09-03T04:18:44;99572.31;;;23.29;30.92
37078;BME280;22989;55.998;37.212;2022-09-03T04:21:13;99577.09;;;23.58;30.14
37078;BME280;22989;55.998;37.212;2022-09-03T04:23:42;99579.06;;;23.72;29.55
37078;BME280;22989;55.998;37.212;2022-09-03T04:26:10;99582.38;;;23.94;29.23
37078;BME280;22989;55.998;37.212;2022-09-03T04:28:37;99582.06;;;24.18;28.65
37078;BME280;22989;55.998;37.212;2022-09-03T04:31:05;99583.44;;;24.43;28.28
37078;BME280;22989;55.998;37.212;2022-09-03T04:33:32;99588.34;;;24.67;27.86
37078;BME280;22989;55.998;37.212;2022-09-03T04:36:06;99585.09;;;24.95;27.14
37078;BME280;22989;55.998;37.212;2022-09-03T04:38:34;99578.94;;;25.12;26.86
37078;BME280;22989;55.998;37.212;2022-09-03T04:41:00;99584.19;;;25.28;26.79
37078;BME280;22989;55.998;37.212;2022-09-03T04:43:27;99589.81;;;25.38;26.28
37078;BME280;22989;55.998;37.212;2022-09-03T04:46:01;99587.88;;;25.57;26.03
37078;BME280;22989;55.998;37.212;2022-09-03T04:48:28;99583.09;;;25.64;25.78
37078;BME280;22989;55.998;37.212;2022-09-03T04:50:59;99587.81;;;25.89;25.57
37078;BME280;22989;55.998;37.212;2022-09-03T04:53:37;99582.88;;;26.29;24.97
37078;BME280;22989;55.998;37.212;2022-09-03T04:56:15;99592.28;;;26.48;24.33
37078;BME280;22989;55.998;37.212;2022-09-03T04:58:41;99589.16;;;26.41;24.81
37078;BME280;22989;55.998;37.212;2022-09-03T05:01:09;99595.66;;;26.36;24.79
37078;BME280;22989;55.998;37.212;2022-09-03T05:03:35;99591.44;;;26.48;24.39
37078;BME280;22989;55.998;37.212;2022-09-03T05:06:04;99597.56;;;26.48;24.53
37078;BME280;22989;55.998;37.212;2022-09-03T05:08:31;99602.72;;;26.21;24.64
37078;BME280;22989;55.998;37.212;2022-09-03T05:11:00;99605.69;;;26.59;24.45
37078;BME280;22989;55.998;37.212;2022-09-03T05:13:26;99596.84;;;26.75;23.96
37078;BME280;22989;55.998;37.212;2022-09-03T05:16:01;99599.47;;;27.18;23.52
37078;BME280;22989;55.998;37.212;2022-09-03T05:18:27;99607.34;;;27.47;23.53
37078;BME280;22989;55.998;37.212;2022-09-03T05:21:00;99602.00;;;27.89;22.96
37078;BME280;22989;55.998;37.212;2022-09-03T05:23:28;99610.84;;;28.02;22.90
37078;BME280;22989;55.998;37.212;2022-09-03T05:26:00;99604.97;;;28.24;22.57
37078;BME280;22989;55.998;37.212;2022-09-03T05:28:30;99608.38;;;28.39;22.43
37078;BME280;22989;55.998;37.212;2022-09-03T05:30:59;99608.25;;;28.41;22.12
37078;BME280;22989;55.998;37.212;2022-09-03T05:33:26;99606.03;;;28.48;21.94
37078;BME280;22989;55.998;37.212;2022-09-03T05:35:54;99611.41;;;28.33;22.17
37078;BME280;22989;55.998;37.212;2022-09-03T05:38:19;99612.16;;;28.48;22.21
37078;BME280;22989;55.998;37.212;2022-09-03T05:40:45;99613.03;;;28.49;22.03
37078;BME280;22989;55.998;37.212;2022-09-03T05:43:11;99610.59;;;28.58;22.00
37078;BME280;22989;55.998;37.212;2022-09-03T05:45:36;99614.06;;;28.59;21.72
37078;BME280;22989;55.998;37.212;2022-09-03T05:48:03;99617.78;;;28.56;22.20
37078;BME280;22989;55.998;37.212;2022-09-03T05:50:28;99617.94;;;28.68;22.16
37078;BME280;22989;55.998;37.212;2022-09-03T05:52:54;99619.28;;;28.73;22.06
37078;BME280;22989;55.998;37.212;2022-09-03T05:55:20;99621.38;;;28.94;21.78
37078;BME280;22989;55.998;37.212;2022-09-03T05:57:50;99625.31;;;29.01;22.03
37078;BME280;22989;55.998;37.212;2022-09-03T06:00:16;99624.34;;;29.02;21.88
37078;BME280;22989;55.998;37.212;2022-09-03T06:02:50;99626.97;;;29.28;21.76
37078;BME280;22989;55.998;37.212;2022-09-03T06:05:17;99619.31;;;29.23;21.55
37078;BME280;22989;55.998;37.212;2022-09-03T06:07:44;99627.94;;;29.51;21.54
37078;BME280;22989;55.998;37.212;2022-09-03T06:10:10;99620.63;;;29.55;21.56
37078;BME280;22989;55.998;37.212;2022-09-03T06:12:37;99626.25;;;29.50;20.78
37078;BME280;22989;55.998;37.212;2022-09-03T06:15:03;99621.53;;;29.67;20.77
37078;BME280;22989;55.998;37.212;2022-09-03T06:17:30;99624.66;;;29.72;20.88
37078;BME280;22989;55.998;37.212;2022-09-03T06:19:56;99625.94;;;30.03;20.92
37078;BME280;22989;55.998;37.212;2022-09-03T06:22:21;99621.84;;;30.10;20.68
37078;BME280;22989;55.998;37.212;2022-09-03T06:24:50;99622.91;;;29.96;20.26
37078;BME280;22989;55.998;37.212;2022-09-03T06:27:15;99620.53;;;30.16;20.45
37078;BME280;22989;55.998;37.212;2022-09-03T06:29:41;99622.09;;;30.19;20.50
37078;BME280;22989;55.998;37.212;2022-09-03T06:32:07;99621.59;;;29.78;20.83
37078;BME280;22989;55.998;37.212;2022-09-03T06:34:33;99620.50;;;29.80;21.04
37078;BME280;22989;55.998;37.212;2022-09-03T06:36:59;99624.75;;;30.19;20.45
37078;BME280;22989;55.998;37.212;2022-09-03T06:39:25;99632.53;;;30.33;20.58
37078;BME280;22989;55.998;37.212;2022-09-03T06:41:51;99635.81;;;30.37;20.41
37078;BME280;22989;55.998;37.212;2022-09-03T06:44:25;99630.00;;;30.32;20.32
37078;BME280;22989;55.998;37.212;2022-09-03T06:46:51;99633.03;;;30.38;20.37
37078;BME280;22989;55.998;37.212;2022-09-03T06:49:18;99634.31;;;30.21;20.10
37078;BME280;22989;55.998;37.212;2022-09-03T06:51:44;99631.19;;;29.92;20.75
37078;BME280;22989;55.998;37.212;2022-09-03T06:54:11;99629.59;;;29.89;20.43
37078;BME280;22989;55.998;37.212;2022-09-03T06:56:39;99632.72;;;30.19;20.73
37078;BME280;22989;55.998;37.212;2022-09-03T06:59:10;99634.59;;;30.41;20.61
37078;BME280;22989;55.998;37.212;2022-09-03T07:01:36;99634.09;;;30.36;19.99
37078;BME280;22989;55.998;37.212;2022-09-03T07:04:06;99638.41;;;30.14;20.01
37078;BME280;22989;55.998;37.212;2022-09-03T07:06:36;99639.13;;;29.68;20.70
37078;BME280;22989;55.998;37.212;2022-09-03T07:09:04;99633.63;;;29.21;21.11
37078;BME280;22989;55.998;37.212;2022-09-03T07:11:30;99636.44;;;29.43;20.52
37078;BME280;22989;55.998;37.212;2022-09-03T07:13:58;99641.78;;;29.18;21.00
37078;BME280;22989;55.998;37.212;2022-09-03T07:16:27;99654.72;;;27.36;22.71
37078;BME280;22989;55.998;37.212;2022-09-03T07:18:53;99656.53;;;25.38;24.79
37078;BME280;22989;55.998;37.212;2022-09-03T07:21:25;99652.22;;;26.00;24.78
37078;BME280;22989;55.998;37.212;2022-09-03T07:23:52;99649.94;;;26.40;24.09
37078;BME280;22989;55.998;37.212;2022-09-03T07:26:23;99658.53;;;24.49;25.35
37078;BME280;22989;55.998;37.212;2022-09-03T07:28:49;99659.72;;;22.30;28.08
37078;BME280;22989;55.998;37.212;2022-09-03T07:31:16;99669.53;;;20.60;30.92
37078;BME280;22989;55.998;37.212;2022-09-03T07:33:56;99670.50;;;19.48;32.97
37078;BME280;22989;55.998;37.212;2022-09-03T07:36:25;99673.56;;;18.66;34.31
37078;BME280;22989;55.998;37.212;2022-09-03T07:38:54;99673.81;;;18.57;34.91
37078;BME280;22989;55.998;37.212;2022-09-03T07:41:21;99666.22;;;18.48;35.17
37078;BME280;22989;55.998;37.212;2022-09-03T07:43:47;99675.38;;;18.64;35.43
37078;BME280;22989;55.998;37.212;2022-09-03T07:46:19;99668.56;;;18.58;35.89
37078;BME280;22989;55.998;37.212;2022-09-03T07:48:51;99666.97;;;18.53;35.53
37078;BME280;22989;55.998;37.212;2022-09-03T07:51:19;99669.34;;;18.62;35.58
37078;BME280;22989;55.998;37.212;2022-09-03T07:53:47;99660.81;;;18.55;35.86
37078;BME280;22989;55.998;37.212;2022-09-03T07:56:14;99661.38;;;18.68;36.05
37078;BME280;22989;55.998;37.212;2022-09-03T07:58:40;99662.38;;;18.28;36.18
37078;BME280;22989;55.998;37.212;2022-09-03T08:01:09;99656.59;;;17.77;36.74
37078;BME280;22989;55.998;37.212;2022-09-03T08:03:36;99668.41;;;17.53;37.15
37078;BME280;22989;55.998;37.212;2022-09-03T08:06:03;99673.69;;;17.06;38.39
37078;BME280;22989;55.998;37.212;2022-09-03T08:08:30;99666.44;;;17.22;38.58
37078;BME280;22989;55.998;37.212;2022-09-03T08:11:23;99659.00;;;17.48;38.18
37078;BME280;22989;55.998;37.212;2022-09-03T08:14:00;99653.03;;;17.82;37.39
37078;BME280;22989;55.998;37.212;2022-09-03T08:16:29;99658.22;;;17.82;36.52
37078;BME280;22989;55.998;37.212;2022-09-03T08:18:55;99648.03;;;17.74;36.69
37078;BME280;22989;55.998;37.212;2022-09-03T08:21:22;99657.84;;;17.61;36.86
37078;BME280;22989;55.998;37.212;2022-09-03T08:23:51;99660.91;;;17.39;37.51
37078;BME280;22989;55.998;37.212;2022-09-03T08:26:18;99668.13;;;17.25;37.28
37078;BME280;22989;55.998;37.212;2022-09-03T08:28:44;99662.81;;;17.30;37.23
37078;BME280;22989;55.998;37.212;2022-09-03T08:31:15;99663.53;;;16.94;36.59
37078;BME280;22989;55.998;37.212;2022-09-03T08:33:43;99664.16;;;16.60;37.27
37078;BME280;22989;55.998;37.212;2022-09-03T08:36:14;99667.56;;;16.62;38.00
37078;BME280;22989;55.998;37.212;2022-09-03T08:38:42;99660.09;;;16.92;37.76
37078;BME280;22989;55.998;37.212;2022-09-03T08:41:13;99653.16;;;17.36;37.28
37078;BME280;22989;55.998;37.212;2022-09-03T08:46:56;99656.28;;;17.54;35.91
37078;BME280;22989;55.998;37.212;2022-09-03T08:49:44;99652.56;;;17.64;36.02
37078;BME280;22989;55.998;37.212;2022-09-03T08:52:37;99655.59;;;17.83;35.97
37078;BME280;22989;55.998;37.212;2022-09-03T08:58:16;99653.22;;;18.13;35.77
37078;BME280;22989;55.998;37.212;2022-09-03T09:23:23;99657.81;;;18.02;34.98
37078;BME280;22989;55.998;37.212;2022-09-03T09:25:52;99659.66;;;17.97;34.97
37078;BME280;22989;55.998;37.212;2022-09-03T09:28:22;99662.13;;;18.03;35.10
37078;BME280;22989;55.998;37.212;2022-09-03T09:30:52;99654.28;;;18.04;34.22
37078;BME280;22989;55.998;37.212;2022-09-03T09:33:18;99653.69;;;17.91;34.76
37078;BME280;22989;55.998;37.212;2022-09-03T09:35:45;99653.22;;;17.74;34.86
37078;BME280;22989;55.998;37.212;2022-09-03T09:38:11;99658.53;;;17.69;34.97
37078;BME280;22989;55.998;37.212;2022-09-03T09:40:40;99653.63;;;17.55;34.60
37078;BME280;22989;55.998;37.212;2022-09-03T09:43:12;99652.00;;;17.50;34.53
37078;BME280;22989;55.998;37.212;2022-09-03T09:45:48;99655.19;;;17.63;34.46
37078;BME280;22989;55.998;37.212;2022-09-03T09:48:24;99643.50;;;17.81;34.23
37078;BME280;22989;55.998;37.212;2022-09-03T09:51:09;99645.56;;;18.05;33.49
37078;BME280;22989;55.998;37.212;2022-09-03T09:53:37;99635.25;;;18.01;33.68
37078;BME280;22989;55.998;37.212;2022-09-03T09:56:04;99642.34;;;17.94;34.06
37078;BME280;22989;55.998;37.212;2022-09-03T09:58:31;99635.84;;;17.74;33.99
37078;BME280;22989;55.998;37.212;2022-09-03T10:01:11;99640.69;;;17.91;34.26
37078;BME280;22989;55.998;37.212;2022-09-03T10:03:46;99645.44;;;18.10;34.56
37078;BME280;22989;55.998;37.212;2022-09-03T10:06:14;99637.09;;;17.97;33.54
37078;BME280;22989;55.998;37.212;2022-09-03T10:09:17;99637.81;;;17.63;34.60
37078;BME280;22989;55.998;37.212;2022-09-03T10:12:18;99646.38;;;17.29;35.25
37078;BME280;22989;55.998;37.212;2022-09-03T10:17:26;99644.22;;;16.60;36.07
37078;BME280;22989;55.998;37.212;2022-09-03T10:20:31;99640.97;;;16.48;36.38
37078;BME280;22989;55.998;37.212;2022-09-03T10:25:22;99644.56;;;16.40;36.64
37078;BME280;22989;55.998;37.212;2022-09-03T10:27:51;99630.81;;;16.34;36.19
37078;BME280;22989;55.998;37.212;2022-09-03T10:30:19;99632.63;;;16.28;36.12
37078;BME280;22989;55.998;37.212;2022-09-03T10:35:29;99637.25;;;16.11;37.22
37078;BME280;22989;55.998;37.212;2022-09-03T10:48:26;99644.88;;;15.63;36.49
37078;BME280;22989;55.998;37.212;2022-09-03T10:51:00;99638.50;;;15.87;36.30
37078;BME280;22989;55.998;37.212;2022-09-03T10:56:05;99630.56;;;16.48;36.33
37078;BME280;22989;55.998;37.212;2022-09-03T10:58:55;99632.81;;;16.68;35.89
37078;BME280;22989;55.998;37.212;2022-09-03T11:07:02;99641.94;;;16.42;36.06
37078;BME280;22989;55.998;37.212;2022-09-03T11:10:10;99635.41;;;16.69;36.06
37078;BME280;22989;55.998;37.212;2022-09-03T11:12:47;99640.25;;;16.89;35.61
37078;BME280;22989;55.998;37.212;2022-09-03T11:15:22;99638.53;;;16.85;35.11
37078;BME280;22989;55.998;37.212;2022-09-03T11:20:50;99635.56;;;17.05;34.74
37078;BME280;22989;55.998;37.212;2022-09-03T11:23:20;99633.72;;;17.12;34.47
37078;BME280;22989;55.998;37.212;2022-09-03T11:26:00;99637.13;;;17.16;34.50
37078;BME280;22989;55.998;37.212;2022-09-03T11:34:10;99632.63;;;17.65;34.22
37078;BME280;22989;55.998;37.212;2022-09-03T11:36:38;99619.41;;;17.72;34.08
37078;BME280;22989;55.998;37.212;2022-09-03T11:39:17;99618.66;;;18.06;33.89
37078;BME280;22989;55.998;37.212;2022-09-03T11:41:56;99622.66;;;18.20;33.47
37078;BME280;22989;55.998;37.212;2022-09-03T11:44:23;99614.47;;;17.99;34.01
37078;BME280;22989;55.998;37.212;2022-09-03T11:46:59;99614.56;;;17.57;34.50
37078;BME280;22989;55.998;37.212;2022-09-03T11:49:30;99612.91;;;17.14;35.13
37078;BME280;22989;55.998;37.212;2022-09-03T11:52:02;99608.28;;;16.83;35.66
37078;BME280;22989;55.998;37.212;2022-09-03T11:54:31;99609.13;;;16.83;35.83
37078;BME280;22989;55.998;37.212;2022-09-03T11:57:15;99604.00;;;16.80;35.63
37078;BME280;22989;55.998;37.212;2022-09-03T11:59:46;99607.53;;;16.77;35.56
37078;BME280;22989;55.998;37.212;2022-09-03T12:02:27;99599.94;;;16.67;35.49
37078;BME280;22989;55.998;37.212;2022-09-03T12:10:15;99590.78;;;16.46;35.49
37078;BME280;22989;55.998;37.212;2022-09-03T12:18:21;99579.94;;;17.14;35.27
37078;BME280;22989;55.998;37.212;2022-09-03T12:23:30;99578.09;;;17.58;34.22
37078;BME280;22989;55.998;37.212;2022-09-03T12:26:06;99581.59;;;17.57;34.37
37078;BME280;22989;55.998;37.212;2022-09-03T12:28:37;99571.72;;;17.72;34.17
37078;BME280;22989;55.998;37.212;2022-09-03T12:31:23;99574.66;;;17.94;34.31
37078;BME280;22989;55.998;37.212;2022-09-03T12:33:54;99569.31;;;18.00;34.32
37078;BME280;22989;55.998;37.212;2022-09-03T12:36:21;99566.38;;;17.78;34.43
37078;BME280;22989;55.998;37.212;2022-09-03T12:38:48;99565.22;;;17.52;34.82
37078;BME280;22989;55.998;37.212;2022-09-03T12:41:28;99563.34;;;17.20;35.27
37078;BME280;22989;55.998;37.212;2022-09-03T12:43:58;99564.53;;;17.05;35.44
37078;BME280;22989;55.998;37.212;2022-09-03T12:46:27;99557.47;;;17.11;34.86
37078;BME280;22989;55.998;37.212;2022-09-03T12:49:04;99556.91;;;16.97;35.01
37078;BME280;22989;55.998;37.212;2022-09-03T12:51:40;99559.75;;;16.83;35.02
37078;BME280;22989;55.998;37.212;2022-09-03T12:54:09;99556.47;;;16.75;35.11
37078;BME280;22989;55.998;37.212;2022-09-03T12:56:52;99556.53;;;16.70;35.58
37078;BME280;22989;55.998;37.212;2022-09-03T12:59:20;99553.97;;;16.69;36.27
37078;BME280;22989;55.998;37.212;2022-09-03T13:01:53;99554.47;;;16.89;36.21
37078;BME280;22989;55.998;37.212;2022-09-03T13:04:24;99556.50;;;17.16;35.80
37078;BME280;22989;55.998;37.212;2022-09-03T13:06:59;99548.25;;;17.36;35.38
37078;BME280;22989;55.998;37.212;2022-09-03T13:09:29;99546.59;;;17.33;34.96
37078;BME280;22989;55.998;37.212;2022-09-03T13:11:57;99540.03;;;17.17;35.51
37078;BME280;22989;55.998;37.212;2022-09-03T13:14:25;99546.41;;;17.02;36.05
37078;BME280;22989;55.998;37.212;2022-09-03T13:23:04;99548.00;;;16.65;36.76
37078;BME280;22989;55.998;37.212;2022-09-03T13:33:22;99543.69;;;16.17;36.51
37078;BME280;22989;55.998;37.212;2022-09-03T13:36:12;99534.28;;;16.10;36.52
37078;BME280;22989;55.998;37.212;2022-09-03T13:38:56;99545.69;;;16.03;36.87
37078;BME280;22989;55.998;37.212;2022-09-03T13:42:04;99544.88;;;16.01;36.62
37078;BME280;22989;55.998;37.212;2022-09-03T13:44:41;99551.88;;;15.96;37.13
37078;BME280;22989;55.998;37.212;2022-09-03T13:47:35;99551.03;;;15.93;37.18
37078;BME280;22989;55.998;37.212;2022-09-03T13:50:27;99541.66;;;15.85;36.85
37078;BME280;22989;55.998;37.212;2022-09-03T14:01:03;99545.06;;;15.29;37.94
37078;BME280;22989;55.998;37.212;2022-09-03T14:03:57;99541.78;;;15.18;38.11
37078;BME280;22989;55.998;37.212;2022-09-03T14:12:04;99535.66;;;15.80;38.37
37078;BME280;22989;55.998;37.212;2022-09-03T14:14:57;99534.81;;;15.81;38.09
37078;BME280;22989;55.998;37.212;2022-09-03T14:17:55;99519.09;;;15.88;38.85
37078;BME280;22989;55.998;37.212;2022-09-03T14:25:22;99525.44;;;15.70;39.26
37078;BME280;22989;55.998;37.212;2022-09-03T14:27:50;99518.59;;;15.66;39.11
37078;BME280;22989;55.998;37.212;2022-09-03T14:30:23;99516.06;;;15.63;39.02
37078;BME280;22989;55.998;37.212;2022-09-03T14:41:17;99511.97;;;15.47;39.37
37078;BME280;22989;55.998;37.212;2022-09-03T15:01:32;99497.53;;;14.68;42.21
37078;BME280;22989;55.998;37.212;2022-09-03T15:04:25;99500.13;;;14.68;42.42
37078;BME280;22989;55.998;37.212;2022-09-03T15:12:36;99501.88;;;14.63;43.03
37078;BME280;22989;55.998;37.212;2022-09-03T15:15:18;99501.00;;;14.65;43.13
37078;BME280;22989;55.998;37.212;2022-09-03T15:17:54;99507.81;;;14.72;43.47
37078;BME280;22989;55.998;37.212;2022-09-03T15:20:48;99495.63;;;14.81;43.61
37078;BME280;22989;55.998;37.212;2022-09-03T15:26:17;99493.06;;;14.79;43.39
37078;BME280;22989;55.998;37.212;2022-09-03T15:35:06;99495.94;;;14.54;43.85
37078;BME280;22989;55.998;37.212;2022-09-03T15:37:46;99499.59;;;14.36;44.22
37078;BME280;22989;55.998;37.212;2022-09-03T15:40:21;99492.91;;;14.15;44.82
37078;BME280;22989;55.998;37.212;2022-09-03T15:42:51;99502.66;;;13.90;45.14
37078;BME280;22989;55.998;37.212;2022-09-03T15:45:40;99496.75;;;13.71;45.60
37078;BME280;22989;55.998;37.212;2022-09-03T15:51:41;99491.03;;;13.36;46.63
37078;BME280;22989;55.998;37.212;2022-09-03T15:57:24;99495.56;;;12.86;47.42
37078;BME280;22989;55.998;37.212;2022-09-03T15:59:59;99494.81;;;12.66;47.88
37078;BME280;22989;55.998;37.212;2022-09-03T16:02:46;99495.75;;;12.51;48.71
37078;BME280;22989;55.998;37.212;2022-09-03T16:05:20;99500.94;;;12.40;48.97
37078;BME280;22989;55.998;37.212;2022-09-03T16:11:02;99495.84;;;12.21;49.69
37078;BME280;22989;55.998;37.212;2022-09-03T16:19:17;99511.31;;;11.90;50.91
37078;BME280;22989;55.998;37.212;2022-09-03T16:27:18;99507.06;;;11.65;52.05
37078;BME280;22989;55.998;37.212;2022-09-03T16:32:55;99513.06;;;11.39;52.67
37078;BME280;22989;55.998;37.212;2022-09-03T16:41:34;99515.59;;;11.25;53.59
37078;BME280;22989;55.998;37.212;2022-09-03T16:57:58;99530.22;;;11.35;54.34
37078;BME280;22989;55.998;37.212;2022-09-03T17:12:03;99527.66;;;11.32;54.68
37078;BME280;22989;55.998;37.212;2022-09-03T17:15:38;99527.63;;;11.35;54.51
37078;BME280;22989;55.998;37.212;2022-09-03T17:34:41;99539.69;;;11.63;55.12
37078;BME280;22989;55.998;37.212;2022-09-03T17:42:32;99544.00;;;11.64;55.91
37078;BME280;22989;55.998;37.212;2022-09-03T17:50:56;99534.53;;;11.46;57.63
37078;BME280;22989;55.998;37.212;2022-09-03T17:53:30;99543.97;;;11.39;57.49
37078;BME280;22989;55.998;37.212;2022-09-03T17:56:03;99537.94;;;11.34;57.72